sensor_id;sensor_type;location;lat;lon;timestamp;P1;durP1;ratioP1;P2;durP2;ratioP2
17308;SDS011;8772;42.804;23.426;2022-07-29T00:00:21;3.00;;;1.93;;
17308;SDS011;8772;42.804;23.426;2022-07-29T00:02:48;3.57;;;2.07;;
17308;SDS011;8772;42.804;23.426;2022-07-29T00:05:15;4.50;;;2.23;;
17308;SDS011;8772;42.804;23.426;2022-07-29T00:07:42;2.83;;;1.97;;
17308;SDS011;8772;42.804;23.426;2022-07-29T00:10:10;4.53;;;2.50;;
17308;SDS011;8772;42.804;23.426;2022-07-29T00:12:37;4.13;;;3.03;;
17308;SDS011;8772;42.804;23.426;2022-07-29T00:15:05;6.20;;;2.57;;
17308;SDS011;8772;42.804;23.426;2022-07-29T00:17:32;5.20;;;2.80;;
17308;SDS011;8772;42.804;23.426;2022-07-29T00:19:59;3.87;;;2.40;;
17308;SDS011;8772;42.804;23.426;2022-07-29T00:22:26;3.37;;;2.37;;
17308;SDS011;8772;42.804;23.426;2022-07-29T00:24:53;5.87;;;3.50;;
17308;SDS011;8772;42.804;23.426;2022-07-29T00:27:21;2.73;;;2.00;;
17308;SDS011;8772;42.804;23.426;2022-07-29T00:29:48;4.63;;;2.60;;
17308;SDS011;8772;42.804;23.426;2022-07-29T00:32:15;2.73;;;2.03;;
17308;SDS011;8772;42.804;23.426;2022-07-29T00:34:42;5.63;;;2.53;;
17308;SDS011;8772;42.804;23.426;2022-07-29T00:37:27;4.10;;;2.50;;
17308;SDS011;8772;42.804;23.426;2022-07-29T00:39:54;4.50;;;3.10;;
17308;SDS011;8772;42.804;23.426;2022-07-29T00:42:23;2.80;;;2.20;;
17308;SDS011;8772;42.804;23.426;2022-07-29T00:44:50;4.03;;;2.73;;
17308;SDS011;8772;42.804;23.426;2022-07-29T00:47:16;4.53;;;2.50;;
17308;SDS011;8772;42.804;23.426;2022-07-29T00:49:43;4.27;;;2.20;;
17308;SDS011;8772;42.804;23.426;2022-07-29T00:52:10;4.43;;;2.90;;
17308;SDS011;8772;42.804;23.426;2022-07-29T00:54:38;3.30;;;2.67;;
17308;SDS011;8772;42.804;23.426;2022-07-29T00:57:06;5.30;;;2.60;;
17308;SDS011;8772;42.804;23.426;2022-07-29T00:59:35;5.27;;;2.70;;
17308;SDS011;8772;42.804;23.426;2022-07-29T01:02:02;4.67;;;3.17;;
17308;SDS011;8772;42.804;23.426;2022-07-29T01:07:52;3.63;;;2.70;;
17308;SDS011;8772;42.804;23.426;2022-07-29T01:10:20;2.70;;;2.33;;
17308;SDS011;8772;42.804;23.426;2022-07-29T01:12:49;4.73;;;3.13;;
17308;SDS011;8772;42.804;23.426;2022-07-29T01:15:18;5.23;;;3.03;;
17308;SDS011;8772;42.804;23.426;2022-07-29T01:17:49;10.27;;;3.10;;
17308;SDS011;8772;42.804;23.426;2022-07-29T01:20:24;5.07;;;3.33;;
17308;SDS011;8772;42.804;23.426;2022-07-29T01:23:03;4.07;;;2.37;;
17308;SDS011;8772;42.804;23.426;2022-07-29T01:25:45;6.03;;;2.80;;
17308;SDS011;8772;42.804;23.426;2022-07-29T01:31:16;5.30;;;2.73;;
17308;SDS011;8772;42.804;23.426;2022-07-29T01:33:48;4.27;;;2.13;;
17308;SDS011;8772;42.804;23.426;2022-07-29T01:36:22;3.13;;;2.23;;
17308;SDS011;8772;42.804;23.426;2022-07-29T01:38:55;3.70;;;2.80;;
17308;SDS011;8772;42.804;23.426;2022-07-29T01:41:28;3.40;;;2.60;;
17308;SDS011;8772;42.804;23.426;2022-07-29T01:44:01;4.60;;;3.10;;
17308;SDS011;8772;42.804;23.426;2022-07-29T01:46:34;7.47;;;3.10;;
17308;SDS011;8772;42.804;23.426;2022-07-29T01:49:05;5.40;;;2.87;;
17308;SDS011;8772;42.804;23.426;2022-07-29T01:51:39;5.87;;;2.77;;
17308;SDS011;8772;42.804;23.426;2022-07-29T01:54:12;3.83;;;2.90;;
17308;SDS011;8772;42.804;23.426;2022-07-29T01:56:44;2.13;;;1.93;;
17308;SDS011;8772;42.804;23.426;2022-07-29T01:59:14;4.00;;;2.70;;
17308;SDS011;8772;42.804;23.426;2022-07-29T02:01:44;5.87;;;3.20;;
17308;SDS011;8772;42.804;23.426;2022-07-29T02:04:13;3.90;;;2.63;;
17308;SDS011;8772;42.804;23.426;2022-07-29T02:06:43;5.93;;;3.03;;
17308;SDS011;8772;42.804;23.426;2022-07-29T02:09:12;4.50;;;2.80;;
17308;SDS011;8772;42.804;23.426;2022-07-29T02:11:41;5.47;;;2.83;;
17308;SDS011;8772;42.804;23.426;2022-07-29T02:14:15;3.67;;;2.67;;
17308;SDS011;8772;42.804;23.426;2022-07-29T02:16:45;4.13;;;2.97;;
17308;SDS011;8772;42.804;23.426;2022-07-29T02:19:14;4.47;;;2.40;;
17308;SDS011;8772;42.804;23.426;2022-07-29T02:21:43;4.67;;;2.83;;
17308;SDS011;8772;42.804;23.426;2022-07-29T02:24:11;5.30;;;3.00;;
17308;SDS011;8772;42.804;23.426;2022-07-29T02:26:40;3.63;;;2.73;;
17308;SDS011;8772;42.804;23.426;2022-07-29T02:29:09;3.60;;;2.17;;
17308;SDS011;8772;42.804;23.426;2022-07-29T02:31:40;5.17;;;2.63;;
17308;SDS011;8772;42.804;23.426;2022-07-29T02:34:09;3.33;;;2.37;;
17308;SDS011;8772;42.804;23.426;2022-07-29T02:36:37;2.87;;;2.27;;
17308;SDS011;8772;42.804;23.426;2022-07-29T02:39:07;3.10;;;2.10;;
17308;SDS011;8772;42.804;23.426;2022-07-29T02:41:38;2.80;;;2.27;;
17308;SDS011;8772;42.804;23.426;2022-07-29T02:44:09;3.87;;;2.73;;
17308;SDS011;8772;42.804;23.426;2022-07-29T02:46:38;3.73;;;2.67;;
17308;SDS011;8772;42.804;23.426;2022-07-29T02:49:14;5.03;;;2.77;;
17308;SDS011;8772;42.804;23.426;2022-07-29T02:51:45;2.73;;;1.97;;
17308;SDS011;8772;42.804;23.426;2022-07-29T02:54:20;2.77;;;2.43;;
17308;SDS011;8772;42.804;23.426;2022-07-29T02:56:52;4.23;;;2.30;;
17308;SDS011;8772;42.804;23.426;2022-07-29T02:59:25;3.20;;;2.30;;
17308;SDS011;8772;42.804;23.426;2022-07-29T03:01:55;3.93;;;2.03;;
17308;SDS011;8772;42.804;23.426;2022-07-29T03:04:25;2.73;;;1.97;;
17308;SDS011;8772;42.804;23.426;2022-07-29T03:06:54;3.37;;;1.90;;
17308;SDS011;8772;42.804;23.426;2022-07-29T03:09:25;2.70;;;2.37;;
17308;SDS011;8772;42.804;23.426;2022-07-29T03:11:54;4.70;;;2.40;;
17308;SDS011;8772;42.804;23.426;2022-07-29T03:14:22;3.47;;;2.63;;
17308;SDS011;8772;42.804;23.426;2022-07-29T03:16:50;2.03;;;1.83;;
17308;SDS011;8772;42.804;23.426;2022-07-29T03:19:19;3.10;;;2.07;;
17308;SDS011;8772;42.804;23.426;2022-07-29T03:21:47;2.10;;;1.60;;
17308;SDS011;8772;42.804;23.426;2022-07-29T03:24:24;2.90;;;2.20;;
17308;SDS011;8772;42.804;23.426;2022-07-29T03:26:52;2.83;;;2.17;;
17308;SDS011;8772;42.804;23.426;2022-07-29T03:29:20;2.83;;;2.07;;
17308;SDS011;8772;42.804;23.426;2022-07-29T03:31:47;2.40;;;1.83;;
17308;SDS011;8772;42.804;23.426;2022-07-29T03:34:14;4.60;;;3.00;;
17308;SDS011;8772;42.804;23.426;2022-07-29T03:36:42;3.13;;;2.17;;
17308;SDS011;8772;42.804;23.426;2022-07-29T03:39:09;2.30;;;2.03;;
17308;SDS011;8772;42.804;23.426;2022-07-29T03:41:39;2.43;;;1.67;;
17308;SDS011;8772;42.804;23.426;2022-07-29T03:44:08;3.23;;;2.30;;
17308;SDS011;8772;42.804;23.426;2022-07-29T03:46:37;3.80;;;2.30;;
17308;SDS011;8772;42.804;23.426;2022-07-29T03:49:06;2.70;;;2.00;;
17308;SDS011;8772;42.804;23.426;2022-07-29T03:51:34;3.07;;;1.90;;
17308;SDS011;8772;42.804;23.426;2022-07-29T03:54:03;4.53;;;1.80;;
17308;SDS011;8772;42.804;23.426;2022-07-29T03:56:32;3.17;;;2.10;;
17308;SDS011;8772;42.804;23.426;2022-07-29T03:59:01;2.93;;;2.10;;
17308;SDS011;8772;42.804;23.426;2022-07-29T04:01:29;3.53;;;1.90;;
17308;SDS011;8772;42.804;23.426;2022-07-29T04:03:58;2.50;;;2.00;;
17308;SDS011;8772;42.804;23.426;2022-07-29T04:06:27;2.03;;;1.57;;
17308;SDS011;8772;42.804;23.426;2022-07-29T04:08:53;2.47;;;2.03;;
17308;SDS011;8772;42.804;23.426;2022-07-29T04:11:22;3.23;;;2.20;;
17308;SDS011;8772;42.804;23.426;2022-07-29T04:13:49;3.60;;;1.83;;
17308;SDS011;8772;42.804;23.426;2022-07-29T04:16:16;3.57;;;1.83;;
17308;SDS011;8772;42.804;23.426;2022-07-29T04:18:43;2.63;;;1.70;;
17308;SDS011;8772;42.804;23.426;2022-07-29T04:21:10;2.77;;;1.97;;
17308;SDS011;8772;42.804;23.426;2022-07-29T04:23:37;3.27;;;2.17;;
17308;SDS011;8772;42.804;23.426;2022-07-29T04:26:04;3.23;;;2.13;;
17308;SDS011;8772;42.804;23.426;2022-07-29T04:28:32;2.77;;;2.07;;
17308;SDS011;8772;42.804;23.426;2022-07-29T04:30:59;2.60;;;1.67;;
17308;SDS011;8772;42.804;23.426;2022-07-29T04:33:26;3.50;;;1.93;;
17308;SDS011;8772;42.804;23.426;2022-07-29T04:35:53;2.80;;;1.70;;
17308;SDS011;8772;42.804;23.426;2022-07-29T04:38:20;3.63;;;1.93;;
17308;SDS011;8772;42.804;23.426;2022-07-29T04:40:47;3.00;;;1.90;;
17308;SDS011;8772;42.804;23.426;2022-07-29T04:43:14;9.80;;;2.43;;
17308;SDS011;8772;42.804;23.426;2022-07-29T04:45:43;2.73;;;1.80;;
17308;SDS011;8772;42.804;23.426;2022-07-29T04:48:10;5.63;;;1.73;;
17308;SDS011;8772;42.804;23.426;2022-07-29T04:50:37;2.90;;;1.93;;
17308;SDS011;8772;42.804;23.426;2022-07-29T04:53:05;2.93;;;1.80;;
17308;SDS011;8772;42.804;23.426;2022-07-29T04:55:32;2.47;;;1.80;;
17308;SDS011;8772;42.804;23.426;2022-07-29T04:57:59;2.47;;;2.10;;
17308;SDS011;8772;42.804;23.426;2022-07-29T05:00:26;2.93;;;1.70;;
17308;SDS011;8772;42.804;23.426;2022-07-29T05:02:55;3.20;;;1.80;;
17308;SDS011;8772;42.804;23.426;2022-07-29T05:05:22;3.87;;;2.17;;
17308;SDS011;8772;42.804;23.426;2022-07-29T05:07:49;1.67;;;1.30;;
17308;SDS011;8772;42.804;23.426;2022-07-29T05:10:16;3.93;;;2.30;;
17308;SDS011;8772;42.804;23.426;2022-07-29T05:12:43;3.37;;;1.80;;
17308;SDS011;8772;42.804;23.426;2022-07-29T05:15:10;2.93;;;1.80;;
17308;SDS011;8772;42.804;23.426;2022-07-29T05:17:37;2.33;;;1.67;;
17308;SDS011;8772;42.804;23.426;2022-07-29T05:20:06;2.67;;;1.60;;
17308;SDS011;8772;42.804;23.426;2022-07-29T05:22:33;5.27;;;1.73;;
17308;SDS011;8772;42.804;23.426;2022-07-29T05:25:00;3.23;;;1.83;;
17308;SDS011;8772;42.804;23.426;2022-07-29T05:27:28;1.73;;;1.40;;
17308;SDS011;8772;42.804;23.426;2022-07-29T05:29:55;2.53;;;1.93;;
17308;SDS011;8772;42.804;23.426;2022-07-29T05:32:22;3.07;;;1.50;;
17308;SDS011;8772;42.804;23.426;2022-07-29T05:34:48;2.53;;;1.70;;
17308;SDS011;8772;42.804;23.426;2022-07-29T05:37:17;4.03;;;1.90;;
17308;SDS011;8772;42.804;23.426;2022-07-29T05:39:44;3.50;;;2.10;;
17308;SDS011;8772;42.804;23.426;2022-07-29T05:42:11;2.27;;;1.73;;
17308;SDS011;8772;42.804;23.426;2022-07-29T05:44:38;3.07;;;1.87;;
17308;SDS011;8772;42.804;23.426;2022-07-29T05:47:06;3.00;;;1.90;;
17308;SDS011;8772;42.804;23.426;2022-07-29T05:49:33;2.00;;;1.40;;
17308;SDS011;8772;42.804;23.426;2022-07-29T05:52:00;3.03;;;1.83;;
17308;SDS011;8772;42.804;23.426;2022-07-29T05:54:28;3.03;;;1.60;;
17308;SDS011;8772;42.804;23.426;2022-07-29T05:56:55;1.40;;;1.20;;
17308;SDS011;8772;42.804;23.426;2022-07-29T05:59:22;2.00;;;1.30;;
17308;SDS011;8772;42.804;23.426;2022-07-29T06:01:49;2.70;;;1.67;;
17308;SDS011;8772;42.804;23.426;2022-07-29T06:04:16;4.30;;;2.03;;
17308;SDS011;8772;42.804;23.426;2022-07-29T06:06:43;2.77;;;1.50;;
17308;SDS011;8772;42.804;23.426;2022-07-29T06:09:10;3.33;;;1.63;;
17308;SDS011;8772;42.804;23.426;2022-07-29T06:11:39;3.30;;;2.37;;
17308;SDS011;8772;42.804;23.426;2022-07-29T06:14:06;3.57;;;1.73;;
17308;SDS011;8772;42.804;23.426;2022-07-29T06:16:33;5.57;;;1.30;;
17308;SDS011;8772;42.804;23.426;2022-07-29T06:19:00;2.97;;;1.70;;
17308;SDS011;8772;42.804;23.426;2022-07-29T06:21:27;2.93;;;1.73;;
17308;SDS011;8772;42.804;23.426;2022-07-29T06:23:54;2.30;;;1.53;;
17308;SDS011;8772;42.804;23.426;2022-07-29T06:26:21;3.22;;;1.77;;
17308;SDS011;8772;42.804;23.426;2022-07-29T06:28:50;4.95;;;2.30;;
17308;SDS011;8772;42.804;23.426;2022-07-29T06:31:17;2.42;;;1.40;;
17308;SDS011;8772;42.804;23.426;2022-07-29T06:33:44;1.73;;;1.30;;
17308;SDS011;8772;42.804;23.426;2022-07-29T06:36:11;3.90;;;1.73;;
17308;SDS011;8772;42.804;23.426;2022-07-29T06:38:38;2.42;;;1.33;;
17308;SDS011;8772;42.804;23.426;2022-07-29T06:41:05;2.22;;;1.60;;
17308;SDS011;8772;42.804;23.426;2022-07-29T06:43:37;2.03;;;1.40;;
17308;SDS011;8772;42.804;23.426;2022-07-29T06:46:08;3.08;;;1.98;;
17308;SDS011;8772;42.804;23.426;2022-07-29T06:48:38;2.30;;;1.33;;
17308;SDS011;8772;42.804;23.426;2022-07-29T06:51:07;3.08;;;1.58;;
17308;SDS011;8772;42.804;23.426;2022-07-29T06:53:35;6.32;;;1.63;;
17308;SDS011;8772;42.804;23.426;2022-07-29T06:56:03;3.17;;;1.83;;
17308;SDS011;8772;42.804;23.426;2022-07-29T06:58:33;2.25;;;1.38;;
17308;SDS011;8772;42.804;23.426;2022-07-29T07:01:02;6.32;;;2.10;;
17308;SDS011;8772;42.804;23.426;2022-07-29T07:03:32;1.92;;;1.23;;
17308;SDS011;8772;42.804;23.426;2022-07-29T07:05:59;5.93;;;1.63;;
17308;SDS011;8772;42.804;23.426;2022-07-29T07:08:26;4.88;;;1.65;;
17308;SDS011;8772;42.804;23.426;2022-07-29T07:10:53;3.33;;;1.92;;
17308;SDS011;8772;42.804;23.426;2022-07-29T07:13:22;2.15;;;1.50;;
17308;SDS011;8772;42.804;23.426;2022-07-29T07:15:49;3.10;;;1.40;;
17308;SDS011;8772;42.804;23.426;2022-07-29T07:18:17;1.73;;;1.50;;
17308;SDS011;8772;42.804;23.426;2022-07-29T07:20:46;5.45;;;2.20;;
17308;SDS011;8772;42.804;23.426;2022-07-29T07:23:13;5.63;;;1.70;;
17308;SDS011;8772;42.804;23.426;2022-07-29T07:25:40;2.05;;;1.50;;
17308;SDS011;8772;42.804;23.426;2022-07-29T07:28:08;2.00;;;1.48;;
17308;SDS011;8772;42.804;23.426;2022-07-29T07:30:35;2.88;;;1.80;;
17308;SDS011;8772;42.804;23.426;2022-07-29T07:33:02;6.53;;;2.08;;
17308;SDS011;8772;42.804;23.426;2022-07-29T07:35:29;2.88;;;2.10;;
17308;SDS011;8772;42.804;23.426;2022-07-29T07:37:58;4.15;;;2.30;;
17308;SDS011;8772;42.804;23.426;2022-07-29T07:40:25;3.17;;;1.80;;
17308;SDS011;8772;42.804;23.426;2022-07-29T07:42:52;3.22;;;1.83;;
17308;SDS011;8772;42.804;23.426;2022-07-29T07:45:19;3.10;;;1.83;;
17308;SDS011;8772;42.804;23.426;2022-07-29T07:47:46;3.80;;;1.80;;
17308;SDS011;8772;42.804;23.426;2022-07-29T07:50:13;2.40;;;1.63;;
17308;SDS011;8772;42.804;23.426;2022-07-29T07:52:47;2.10;;;1.25;;
17308;SDS011;8772;42.804;23.426;2022-07-29T07:55:17;1.95;;;1.55;;
17308;SDS011;8772;42.804;23.426;2022-07-29T07:57:45;3.30;;;1.80;;
17308;SDS011;8772;42.804;23.426;2022-07-29T08:00:13;3.08;;;1.40;;
17308;SDS011;8772;42.804;23.426;2022-07-29T08:02:41;2.30;;;1.50;;
17308;SDS011;8772;42.804;23.426;2022-07-29T08:05:10;2.45;;;1.70;;
17308;SDS011;8772;42.804;23.426;2022-07-29T08:07:41;2.20;;;1.58;;
17308;SDS011;8772;42.804;23.426;2022-07-29T08:10:08;2.30;;;1.63;;
17308;SDS011;8772;42.804;23.426;2022-07-29T08:12:36;3.63;;;1.83;;
17308;SDS011;8772;42.804;23.426;2022-07-29T08:15:04;3.03;;;1.58;;
17308;SDS011;8772;42.804;23.426;2022-07-29T08:17:32;4.95;;;1.52;;
17308;SDS011;8772;42.804;23.426;2022-07-29T08:20:00;3.55;;;1.25;;
17308;SDS011;8772;42.804;23.426;2022-07-29T08:22:27;2.53;;;1.60;;
17308;SDS011;8772;42.804;23.426;2022-07-29T08:24:54;2.30;;;1.52;;
17308;SDS011;8772;42.804;23.426;2022-07-29T08:27:21;3.40;;;1.63;;
17308;SDS011;8772;42.804;23.426;2022-07-29T08:29:50;2.83;;;1.70;;
17308;SDS011;8772;42.804;23.426;2022-07-29T08:32:17;4.22;;;2.28;;
17308;SDS011;8772;42.804;23.426;2022-07-29T08:34:44;3.85;;;1.98;;
17308;SDS011;8772;42.804;23.426;2022-07-29T08:37:11;2.90;;;1.50;;
17308;SDS011;8772;42.804;23.426;2022-07-29T08:39:39;2.58;;;1.50;;
17308;SDS011;8772;42.804;23.426;2022-07-29T08:42:06;1.95;;;1.50;;
17308;SDS011;8772;42.804;23.426;2022-07-29T08:44:34;3.00;;;1.90;;
17308;SDS011;8772;42.804;23.426;2022-07-29T08:47:03;1.90;;;1.33;;
17308;SDS011;8772;42.804;23.426;2022-07-29T08:49:32;4.63;;;2.03;;
17308;SDS011;8772;42.804;23.426;2022-07-29T08:52:00;1.55;;;1.15;;
17308;SDS011;8772;42.804;23.426;2022-07-29T08:54:28;2.58;;;1.50;;
17308;SDS011;8772;42.804;23.426;2022-07-29T08:56:55;3.72;;;1.58;;
17308;SDS011;8772;42.804;23.426;2022-07-29T08:59:24;1.67;;;1.17;;
17308;SDS011;8772;42.804;23.426;2022-07-29T09:01:53;2.47;;;1.65;;
17308;SDS011;8772;42.804;23.426;2022-07-29T09:04:22;2.20;;;1.30;;
17308;SDS011;8772;42.804;23.426;2022-07-29T09:06:53;2.53;;;1.30;;
17308;SDS011;8772;42.804;23.426;2022-07-29T09:09:23;5.35;;;1.25;;
17308;SDS011;8772;42.804;23.426;2022-07-29T09:11:50;1.70;;;1.13;;
17308;SDS011;8772;42.804;23.426;2022-07-29T09:14:19;2.53;;;1.30;;
17308;SDS011;8772;42.804;23.426;2022-07-29T09:16:49;2.10;;;1.20;;
17308;SDS011;8772;42.804;23.426;2022-07-29T09:19:22;2.67;;;1.52;;
17308;SDS011;8772;42.804;23.426;2022-07-29T09:21:51;1.88;;;1.38;;
17308;SDS011;8772;42.804;23.426;2022-07-29T09:24:24;1.63;;;1.27;;
17308;SDS011;8772;42.804;23.426;2022-07-29T09:26:53;4.43;;;1.92;;
17308;SDS011;8772;42.804;23.426;2022-07-29T09:29:20;2.13;;;1.42;;
17308;SDS011;8772;42.804;23.426;2022-07-29T09:31:50;12.85;;;1.60;;
17308;SDS011;8772;42.804;23.426;2022-07-29T09:34:22;2.08;;;1.30;;
17308;SDS011;8772;42.804;23.426;2022-07-29T09:36:51;2.42;;;1.65;;
17308;SDS011;8772;42.804;23.426;2022-07-29T09:39:29;2.03;;;1.42;;
17308;SDS011;8772;42.804;23.426;2022-07-29T09:41:58;1.80;;;1.35;;
17308;SDS011;8772;42.804;23.426;2022-07-29T09:44:26;2.60;;;1.42;;
17308;SDS011;8772;42.804;23.426;2022-07-29T09:47:06;1.83;;;1.30;;
17308;SDS011;8772;42.804;23.426;2022-07-29T09:49:35;2.15;;;1.27;;
17308;SDS011;8772;42.804;23.426;2022-07-29T09:52:16;1.38;;;1.05;;
17308;SDS011;8772;42.804;23.426;2022-07-29T09:54:43;2.45;;;1.38;;
17308;SDS011;8772;42.804;23.426;2022-07-29T09:57:21;1.63;;;1.30;;
17308;SDS011;8772;42.804;23.426;2022-07-29T09:59:55;6.57;;;1.73;;
17308;SDS011;8772;42.804;23.426;2022-07-29T10:02:27;1.75;;;1.50;;
17308;SDS011;8772;42.804;23.426;2022-07-29T10:04:57;1.30;;;1.00;;
17308;SDS011;8772;42.804;23.426;2022-07-29T10:07:24;2.20;;;1.20;;
17308;SDS011;8772;42.804;23.426;2022-07-29T10:09:52;2.45;;;1.20;;
17308;SDS011;8772;42.804;23.426;2022-07-29T10:12:21;3.47;;;1.63;;
17308;SDS011;8772;42.804;23.426;2022-07-29T10:14:48;1.48;;;1.10;;
17308;SDS011;8772;42.804;23.426;2022-07-29T10:17:16;4.20;;;1.50;;
17308;SDS011;8772;42.804;23.426;2022-07-29T10:19:44;1.25;;;0.98;;
17308;SDS011;8772;42.804;23.426;2022-07-29T10:22:12;2.15;;;1.38;;
17308;SDS011;8772;42.804;23.426;2022-07-29T10:24:39;2.20;;;1.38;;
17308;SDS011;8772;42.804;23.426;2022-07-29T10:27:07;1.60;;;1.40;;
17308;SDS011;8772;42.804;23.426;2022-07-29T10:29:35;2.13;;;1.35;;
17308;SDS011;8772;42.804;23.426;2022-07-29T10:32:15;1.15;;;0.98;;
17308;SDS011;8772;42.804;23.426;2022-07-29T10:34:56;1.77;;;1.20;;
17308;SDS011;8772;42.804;23.426;2022-07-29T10:37:51;2.10;;;1.50;;
17308;SDS011;8772;42.804;23.426;2022-07-29T10:40:32;4.15;;;1.42;;
17308;SDS011;8772;42.804;23.426;2022-07-29T10:43:26;1.73;;;1.25;;
17308;SDS011;8772;42.804;23.426;2022-07-29T10:45:58;1.58;;;1.27;;
17308;SDS011;8772;42.804;23.426;2022-07-29T10:48:27;1.50;;;1.23;;
17308;SDS011;8772;42.804;23.426;2022-07-29T10:50:55;8.25;;;1.23;;
17308;SDS011;8772;42.804;23.426;2022-07-29T10:53:45;1.55;;;1.20;;
17308;SDS011;8772;42.804;23.426;2022-07-29T10:56:25;17.38;;;2.05;;
17308;SDS011;8772;42.804;23.426;2022-07-29T11:01:53;1.90;;;1.38;;
17308;SDS011;8772;42.804;23.426;2022-07-29T11:07:26;2.20;;;1.60;;
17308;SDS011;8772;42.804;23.426;2022-07-29T11:10:20;2.78;;;1.50;;
17308;SDS011;8772;42.804;23.426;2022-07-29T11:12:50;1.52;;;1.13;;
17308;SDS011;8772;42.804;23.426;2022-07-29T11:15:19;2.40;;;1.30;;
17308;SDS011;8772;42.804;23.426;2022-07-29T11:18:03;1.67;;;1.48;;
17308;SDS011;8772;42.804;23.426;2022-07-29T11:20:34;2.70;;;1.58;;
17308;SDS011;8772;42.804;23.426;2022-07-29T11:23:21;2.40;;;1.50;;
17308;SDS011;8772;42.804;23.426;2022-07-29T11:28:50;2.03;;;1.38;;
17308;SDS011;8772;42.804;23.426;2022-07-29T11:31:19;2.80;;;1.52;;
17308;SDS011;8772;42.804;23.426;2022-07-29T11:34:20;2.97;;;1.33;;
17308;SDS011;8772;42.804;23.426;2022-07-29T11:39:41;2.45;;;1.67;;
17308;SDS011;8772;42.804;23.426;2022-07-29T11:45:24;2.70;;;1.88;;
17308;SDS011;8772;42.804;23.426;2022-07-29T11:47:58;2.63;;;1.83;;
17308;SDS011;8772;42.804;23.426;2022-07-29T11:50:35;2.63;;;1.92;;
17308;SDS011;8772;42.804;23.426;2022-07-29T11:53:09;2.33;;;1.80;;
17308;SDS011;8772;42.804;23.426;2022-07-29T11:55:38;2.45;;;1.83;;
17308;SDS011;8772;42.804;23.426;2022-07-29T11:58:07;2.85;;;1.63;;
17308;SDS011;8772;42.804;23.426;2022-07-29T12:00:35;2.55;;;1.70;;
17308;SDS011;8772;42.804;23.426;2022-07-29T12:03:05;2.88;;;1.50;;
17308;SDS011;8772;42.804;23.426;2022-07-29T12:05:38;1.95;;;1.35;;
17308;SDS011;8772;42.804;23.426;2022-07-29T12:08:07;2.35;;;1.63;;
17308;SDS011;8772;42.804;23.426;2022-07-29T12:10:39;10.52;;;1.90;;
17308;SDS011;8772;42.804;23.426;2022-07-29T12:13:08;5.80;;;2.20;;
17308;SDS011;8772;42.804;23.426;2022-07-29T12:15:36;4.40;;;2.15;;
17308;SDS011;8772;42.804;23.426;2022-07-29T12:18:13;3.28;;;1.50;;
17308;SDS011;8772;42.804;23.426;2022-07-29T12:20:42;3.08;;;2.10;;
17308;SDS011;8772;42.804;23.426;2022-07-29T12:23:10;4.00;;;1.60;;
17308;SDS011;8772;42.804;23.426;2022-07-29T12:25:38;2.42;;;1.80;;
17308;SDS011;8772;42.804;23.426;2022-07-29T12:28:08;3.10;;;1.90;;
17308;SDS011;8772;42.804;23.426;2022-07-29T12:30:41;2.55;;;1.80;;
17308;SDS011;8772;42.804;23.426;2022-07-29T12:33:13;2.63;;;1.75;;
17308;SDS011;8772;42.804;23.426;2022-07-29T12:35:43;2.60;;;1.63;;
17308;SDS011;8772;42.804;23.426;2022-07-29T12:38:12;4.00;;;1.83;;
17308;SDS011;8772;42.804;23.426;2022-07-29T12:40:40;2.65;;;1.50;;
17308;SDS011;8772;42.804;23.426;2022-07-29T12:43:11;2.20;;;1.60;;
17308;SDS011;8772;42.804;23.426;2022-07-29T12:45:39;2.65;;;1.52;;
17308;SDS011;8772;42.804;23.426;2022-07-29T12:48:07;3.13;;;1.55;;
17308;SDS011;8772;42.804;23.426;2022-07-29T12:50:35;2.60;;;1.77;;
17308;SDS011;8772;42.804;23.426;2022-07-29T12:53:10;2.75;;;1.90;;
17308;SDS011;8772;42.804;23.426;2022-07-29T12:55:39;2.80;;;1.60;;
17308;SDS011;8772;42.804;23.426;2022-07-29T12:58:09;2.22;;;1.83;;
17308;SDS011;8772;42.804;23.426;2022-07-29T13:00:36;1.90;;;1.60;;
17308;SDS011;8772;42.804;23.426;2022-07-29T13:03:04;1.88;;;1.30;;
17308;SDS011;8772;42.804;23.426;2022-07-29T13:05:41;2.78;;;1.85;;
17308;SDS011;8772;42.804;23.426;2022-07-29T13:08:10;2.70;;;1.63;;
17308;SDS011;8772;42.804;23.426;2022-07-29T13:10:37;2.13;;;1.48;;
17308;SDS011;8772;42.804;23.426;2022-07-29T13:13:05;2.47;;;1.60;;
17308;SDS011;8772;42.804;23.426;2022-07-29T13:15:36;2.17;;;1.60;;
17308;SDS011;8772;42.804;23.426;2022-07-29T13:18:04;2.80;;;1.90;;
17308;SDS011;8772;42.804;23.426;2022-07-29T13:20:52;1.63;;;1.35;;
17308;SDS011;8772;42.804;23.426;2022-07-29T13:23:19;3.15;;;1.83;;
17308;SDS011;8772;42.804;23.426;2022-07-29T13:25:46;3.42;;;1.77;;
17308;SDS011;8772;42.804;23.426;2022-07-29T13:28:13;1.85;;;1.48;;
17308;SDS011;8772;42.804;23.426;2022-07-29T13:30:42;6.03;;;1.60;;
17308;SDS011;8772;42.804;23.426;2022-07-29T13:33:09;2.83;;;1.40;;
17308;SDS011;8772;42.804;23.426;2022-07-29T13:35:36;6.57;;;1.50;;
17308;SDS011;8772;42.804;23.426;2022-07-29T13:38:03;2.97;;;1.67;;
17308;SDS011;8772;42.804;23.426;2022-07-29T13:40:30;2.58;;;1.90;;
17308;SDS011;8772;42.804;23.426;2022-07-29T13:43:00;2.55;;;1.52;;
17308;SDS011;8772;42.804;23.426;2022-07-29T13:45:27;2.80;;;1.95;;
17308;SDS011;8772;42.804;23.426;2022-07-29T13:47:56;3.20;;;1.80;;
17308;SDS011;8772;42.804;23.426;2022-07-29T13:50:23;1.63;;;1.48;;
17308;SDS011;8772;42.804;23.426;2022-07-29T13:52:50;2.10;;;1.60;;
17308;SDS011;8772;42.804;23.426;2022-07-29T13:55:17;2.15;;;1.67;;
17308;SDS011;8772;42.804;23.426;2022-07-29T13:57:44;2.25;;;1.50;;
17308;SDS011;8772;42.804;23.426;2022-07-29T14:00:12;2.55;;;1.73;;
17308;SDS011;8772;42.804;23.426;2022-07-29T14:02:41;3.03;;;1.70;;
17308;SDS011;8772;42.804;23.426;2022-07-29T14:05:10;2.15;;;1.73;;
17308;SDS011;8772;42.804;23.426;2022-07-29T14:07:37;2.90;;;1.88;;
17308;SDS011;8772;42.804;23.426;2022-07-29T14:10:05;6.15;;;1.50;;
17308;SDS011;8772;42.804;23.426;2022-07-29T14:12:32;3.03;;;1.77;;
17308;SDS011;8772;42.804;23.426;2022-07-29T14:14:59;2.78;;;1.90;;
17308;SDS011;8772;42.804;23.426;2022-07-29T14:17:26;1.73;;;1.38;;
17308;SDS011;8772;42.804;23.426;2022-07-29T14:19:53;1.88;;;1.17;;
17308;SDS011;8772;42.804;23.426;2022-07-29T14:22:22;2.35;;;1.70;;
17308;SDS011;8772;42.804;23.426;2022-07-29T14:24:50;1.77;;;1.50;;
17308;SDS011;8772;42.804;23.426;2022-07-29T14:27:17;4.75;;;2.05;;
17308;SDS011;8772;42.804;23.426;2022-07-29T14:29:44;3.40;;;1.38;;
17308;SDS011;8772;42.804;23.426;2022-07-29T14:32:11;1.60;;;1.40;;
17308;SDS011;8772;42.804;23.426;2022-07-29T14:34:40;5.47;;;1.58;;
17308;SDS011;8772;42.804;23.426;2022-07-29T14:37:07;1.90;;;1.55;;
17308;SDS011;8772;42.804;23.426;2022-07-29T14:39:35;2.75;;;1.67;;
17308;SDS011;8772;42.804;23.426;2022-07-29T14:42:03;2.30;;;1.52;;
17308;SDS011;8772;42.804;23.426;2022-07-29T14:44:30;4.72;;;1.75;;
17308;SDS011;8772;42.804;23.426;2022-07-29T14:46:57;3.22;;;1.77;;
17308;SDS011;8772;42.804;23.426;2022-07-29T14:49:25;1.77;;;1.30;;
17308;SDS011;8772;42.804;23.426;2022-07-29T14:51:52;2.75;;;1.60;;
17308;SDS011;8772;42.804;23.426;2022-07-29T14:54:19;2.42;;;1.50;;
17308;SDS011;8772;42.804;23.426;2022-07-29T14:56:47;1.88;;;1.58;;
17308;SDS011;8772;42.804;23.426;2022-07-29T14:59:16;3.67;;;1.73;;
17308;SDS011;8772;42.804;23.426;2022-07-29T15:01:44;2.08;;;1.42;;
17308;SDS011;8772;42.804;23.426;2022-07-29T15:04:10;2.17;;;1.58;;
17308;SDS011;8772;42.804;23.426;2022-07-29T15:06:37;2.80;;;1.70;;
17308;SDS011;8772;42.804;23.426;2022-07-29T15:09:04;2.88;;;1.98;;
17308;SDS011;8772;42.804;23.426;2022-07-29T15:11:31;2.80;;;1.88;;
17308;SDS011;8772;42.804;23.426;2022-07-29T15:14:00;1.90;;;1.48;;
17308;SDS011;8772;42.804;23.426;2022-07-29T15:16:27;2.17;;;1.52;;
17308;SDS011;8772;42.804;23.426;2022-07-29T15:18:54;3.67;;;1.90;;
17308;SDS011;8772;42.804;23.426;2022-07-29T15:21:22;1.77;;;1.45;;